sensor_id;sensor_type;location;lat;lon;timestamp;P1;durP1;ratioP1;P2;durP2;ratioP2
9559;SDS011;4818;50.860;4.648;2022-11-18T00:01:08;6.32;;;0.50;;
9559;SDS011;4818;50.860;4.648;2022-11-18T00:03:35;3.10;;;0.40;;
9559;SDS011;4818;50.860;4.648;2022-11-18T00:06:02;3.40;;;0.55;;
9559;SDS011;4818;50.860;4.648;2022-11-18T00:08:28;1.77;;;0.40;;
9559;SDS011;4818;50.860;4.648;2022-11-18T00:10:54;2.35;;;0.50;;
9559;SDS011;4818;50.860;4.648;2022-11-18T00:13:21;4.30;;;0.40;;
9559;SDS011;4818;50.860;4.648;2022-11-18T00:16:09;1.38;;;0.40;;
9559;SDS011;4818;50.860;4.648;2022-11-18T00:18:36;3.03;;;0.50;;
9559;SDS011;4818;50.860;4.648;2022-11-18T00:21:10;3.15;;;0.45;;
9559;SDS011;4818;50.860;4.648;2022-11-18T00:23:37;1.98;;;0.65;;
9559;SDS011;4818;50.860;4.648;2022-11-18T00:28:32;2.85;;;0.40;;
9559;SDS011;4818;50.860;4.648;2022-11-18T00:31:04;3.10;;;0.77;;
9559;SDS011;4818;50.860;4.648;2022-11-18T00:33:30;4.53;;;0.40;;
9559;SDS011;4818;50.860;4.648;2022-11-18T00:35:57;2.55;;;0.38;;
9559;SDS011;4818;50.860;4.648;2022-11-18T00:38:24;1.88;;;0.30;;
9559;SDS011;4818;50.860;4.648;2022-11-18T00:41:03;3.85;;;0.40;;
9559;SDS011;4818;50.860;4.648;2022-11-18T00:43:30;2.53;;;0.50;;
9559;SDS011;4818;50.860;4.648;2022-11-18T00:45:56;2.25;;;0.40;;
9559;SDS011;4818;50.860;4.648;2022-11-18T00:48:23;2.38;;;0.40;;
9559;SDS011;4818;50.860;4.648;2022-11-18T00:50:49;5.00;;;0.35;;
9559;SDS011;4818;50.860;4.648;2022-11-18T00:53:16;5.00;;;0.60;;
9559;SDS011;4818;50.860;4.648;2022-11-18T00:55:43;8.18;;;0.65;;
9559;SDS011;4818;50.860;4.648;2022-11-18T00:58:09;5.10;;;0.50;;
9559;SDS011;4818;50.860;4.648;2022-11-18T01:00:49;4.20;;;0.40;;
9559;SDS011;4818;50.860;4.648;2022-11-18T01:03:16;3.10;;;0.40;;
9559;SDS011;4818;50.860;4.648;2022-11-18T01:05:42;1.05;;;0.20;;
9559;SDS011;4818;50.860;4.648;2022-11-18T01:08:09;1.90;;;0.30;;
9559;SDS011;4818;50.860;4.648;2022-11-18T01:10:36;3.35;;;0.30;;
9559;SDS011;4818;50.860;4.648;2022-11-18T01:13:03;1.98;;;0.32;;
9559;SDS011;4818;50.860;4.648;2022-11-18T01:15:49;2.40;;;0.30;;
9559;SDS011;4818;50.860;4.648;2022-11-18T01:18:16;2.05;;;0.30;;
9559;SDS011;4818;50.860;4.648;2022-11-18T01:20:43;1.08;;;0.30;;
9559;SDS011;4818;50.860;4.648;2022-11-18T01:23:09;2.25;;;0.30;;
9559;SDS011;4818;50.860;4.648;2022-11-18T01:25:36;5.72;;;0.30;;
9559;SDS011;4818;50.860;4.648;2022-11-18T01:28:03;2.60;;;0.30;;
9559;SDS011;4818;50.860;4.648;2022-11-18T01:30:32;5.43;;;0.38;;
9559;SDS011;4818;50.860;4.648;2022-11-18T01:32:58;2.55;;;0.20;;
9559;SDS011;4818;50.860;4.648;2022-11-18T01:35:25;2.88;;;0.30;;
9559;SDS011;4818;50.860;4.648;2022-11-18T01:37:51;2.13;;;0.50;;
9559;SDS011;4818;50.860;4.648;2022-11-18T01:40:17;1.95;;;0.38;;
9559;SDS011;4818;50.860;4.648;2022-11-18T01:42:43;2.42;;;0.30;;
9559;SDS011;4818;50.860;4.648;2022-11-18T01:45:22;5.38;;;0.52;;
9559;SDS011;4818;50.860;4.648;2022-11-18T01:47:55;1.35;;;0.40;;
9559;SDS011;4818;50.860;4.648;2022-11-18T01:50:24;1.92;;;0.40;;
9559;SDS011;4818;50.860;4.648;2022-11-18T01:52:51;4.18;;;0.38;;
9559;SDS011;4818;50.860;4.648;2022-11-18T01:55:21;4.40;;;0.25;;
9559;SDS011;4818;50.860;4.648;2022-11-18T01:57:48;2.25;;;0.28;;
9559;SDS011;4818;50.860;4.648;2022-11-18T02:00:16;3.13;;;0.35;;
9559;SDS011;4818;50.860;4.648;2022-11-18T02:02:43;2.25;;;0.50;;
9559;SDS011;4818;50.860;4.648;2022-11-18T02:05:10;1.83;;;0.20;;
9559;SDS011;4818;50.860;4.648;2022-11-18T02:07:38;3.10;;;0.50;;
9559;SDS011;4818;50.860;4.648;2022-11-18T02:10:05;3.75;;;0.50;;
9559;SDS011;4818;50.860;4.648;2022-11-18T02:12:31;7.10;;;0.40;;
9559;SDS011;4818;50.860;4.648;2022-11-18T02:14:58;3.33;;;0.50;;
9559;SDS011;4818;50.860;4.648;2022-11-18T02:30:48;2.55;;;0.40;;
9559;SDS011;4818;50.860;4.648;2022-11-18T02:33:16;6.82;;;0.40;;
9559;SDS011;4818;50.860;4.648;2022-11-18T02:41:04;5.07;;;0.40;;
9559;SDS011;4818;50.860;4.648;2022-11-18T02:43:33;2.38;;;0.30;;
9559;SDS011;4818;50.860;4.648;2022-11-18T02:46:01;1.33;;;0.50;;
9559;SDS011;4818;50.860;4.648;2022-11-18T02:48:29;1.08;;;0.70;;
9559;SDS011;4818;50.860;4.648;2022-11-18T02:50:56;3.25;;;0.32;;
9559;SDS011;4818;50.860;4.648;2022-11-18T02:53:23;1.98;;;0.57;;
9559;SDS011;4818;50.860;4.648;2022-11-18T02:55:50;6.32;;;0.95;;
9559;SDS011;4818;50.860;4.648;2022-11-18T02:58:17;1.48;;;0.40;;
9559;SDS011;4818;50.860;4.648;2022-11-18T03:00:51;1.95;;;0.30;;
9559;SDS011;4818;50.860;4.648;2022-11-18T03:08:21;4.57;;;0.50;;
9559;SDS011;4818;50.860;4.648;2022-11-18T03:10:52;1.50;;;0.30;;
9559;SDS011;4818;50.860;4.648;2022-11-18T03:13:23;2.13;;;0.38;;
9559;SDS011;4818;50.860;4.648;2022-11-18T03:16:00;2.88;;;0.35;;
9559;SDS011;4818;50.860;4.648;2022-11-18T03:21:10;1.63;;;0.65;;
9559;SDS011;4818;50.860;4.648;2022-11-18T03:23:39;4.90;;;0.38;;
9559;SDS011;4818;50.860;4.648;2022-11-18T03:26:08;1.98;;;0.30;;
9559;SDS011;4818;50.860;4.648;2022-11-18T03:31:22;2.17;;;0.43;;
9559;SDS011;4818;50.860;4.648;2022-11-18T03:34:00;1.33;;;0.32;;
9559;SDS011;4818;50.860;4.648;2022-11-18T03:36:28;1.50;;;0.60;;
9559;SDS011;4818;50.860;4.648;2022-11-18T03:38:58;2.83;;;0.40;;
9559;SDS011;4818;50.860;4.648;2022-11-18T03:41:26;4.50;;;0.95;;
9559;SDS011;4818;50.860;4.648;2022-11-18T03:43:57;5.13;;;0.40;;
9559;SDS011;4818;50.860;4.648;2022-11-18T03:46:30;3.13;;;0.50;;
9559;SDS011;4818;50.860;4.648;2022-11-18T03:48:59;3.45;;;0.68;;
9559;SDS011;4818;50.860;4.648;2022-11-18T03:51:34;2.55;;;0.60;;
9559;SDS011;4818;50.860;4.648;2022-11-18T03:54:11;2.38;;;0.35;;
9559;SDS011;4818;50.860;4.648;2022-11-18T03:56:40;4.45;;;0.60;;
9559;SDS011;4818;50.860;4.648;2022-11-18T03:59:12;4.13;;;0.50;;
9559;SDS011;4818;50.860;4.648;2022-11-18T04:02:14;1.00;;;0.43;;
9559;SDS011;4818;50.860;4.648;2022-11-18T04:04:33;2.67;;;0.80;;
9559;SDS011;4818;50.860;4.648;2022-11-18T04:07:04;1.85;;;0.45;;
9559;SDS011;4818;50.860;4.648;2022-11-18T04:09:35;4.53;;;0.57;;
9559;SDS011;4818;50.860;4.648;2022-11-18T04:12:03;2.25;;;0.55;;
9559;SDS011;4818;50.860;4.648;2022-11-18T04:14:31;0.95;;;0.60;;
9559;SDS011;4818;50.860;4.648;2022-11-18T04:16:58;1.95;;;0.60;;
9559;SDS011;4818;50.860;4.648;2022-11-18T04:19:24;2.95;;;0.60;;
9559;SDS011;4818;50.860;4.648;2022-11-18T04:21:50;2.20;;;0.60;;
9559;SDS011;4818;50.860;4.648;2022-11-18T04:24:17;2.60;;;0.55;;
9559;SDS011;4818;50.860;4.648;2022-11-18T04:26:43;2.45;;;0.45;;
9559;SDS011;4818;50.860;4.648;2022-11-18T04:29:09;3.30;;;0.70;;
9559;SDS011;4818;50.860;4.648;2022-11-18T04:31:35;2.50;;;0.47;;
9559;SDS011;4818;50.860;4.648;2022-11-18T04:34:02;8.13;;;0.60;;
9559;SDS011;4818;50.860;4.648;2022-11-18T04:36:28;2.92;;;0.88;;
9559;SDS011;4818;50.860;4.648;2022-11-18T04:38:54;4.63;;;0.82;;
9559;SDS011;4818;50.860;4.648;2022-11-18T04:41:20;1.83;;;0.50;;
9559;SDS011;4818;50.860;4.648;2022-11-18T04:44:06;3.75;;;0.82;;
9559;SDS011;4818;50.860;4.648;2022-11-18T04:46:38;2.53;;;0.47;;
9559;SDS011;4818;50.860;4.648;2022-11-18T04:49:05;3.10;;;0.75;;
9559;SDS011;4818;50.860;4.648;2022-11-18T04:51:31;5.97;;;1.23;;
9559;SDS011;4818;50.860;4.648;2022-11-18T04:53:57;7.47;;;1.00;;
9559;SDS011;4818;50.860;4.648;2022-11-18T04:56:23;2.97;;;0.65;;
9559;SDS011;4818;50.860;4.648;2022-11-18T04:58:49;2.33;;;0.80;;
9559;SDS011;4818;50.860;4.648;2022-11-18T05:01:16;3.38;;;0.50;;
9559;SDS011;4818;50.860;4.648;2022-11-18T05:03:42;3.63;;;0.73;;
9559;SDS011;4818;50.860;4.648;2022-11-18T05:06:08;2.45;;;0.50;;
9559;SDS011;4818;50.860;4.648;2022-11-18T05:08:34;6.00;;;0.60;;
9559;SDS011;4818;50.860;4.648;2022-11-18T05:11:04;2.53;;;0.70;;
9559;SDS011;4818;50.860;4.648;2022-11-18T05:13:49;3.45;;;0.50;;
9559;SDS011;4818;50.860;4.648;2022-11-18T05:16:15;6.88;;;0.75;;
9559;SDS011;4818;50.860;4.648;2022-11-18T05:18:42;4.00;;;0.68;;
9559;SDS011;4818;50.860;4.648;2022-11-18T05:21:08;1.50;;;0.40;;
9559;SDS011;4818;50.860;4.648;2022-11-18T05:23:34;2.13;;;0.88;;
9559;SDS011;4818;50.860;4.648;2022-11-18T05:26:04;2.50;;;1.00;;
9559;SDS011;4818;50.860;4.648;2022-11-18T05:28:31;2.40;;;0.63;;
9559;SDS011;4818;50.860;4.648;2022-11-18T05:30:57;2.53;;;0.90;;
9559;SDS011;4818;50.860;4.648;2022-11-18T05:33:23;3.45;;;0.60;;
9559;SDS011;4818;50.860;4.648;2022-11-18T05:35:49;1.55;;;0.80;;
9559;SDS011;4818;50.860;4.648;2022-11-18T05:38:16;5.00;;;0.60;;
9559;SDS011;4818;50.860;4.648;2022-11-18T05:40:42;4.28;;;1.00;;
9559;SDS011;4818;50.860;4.648;2022-11-18T05:43:09;6.07;;;0.90;;
9559;SDS011;4818;50.860;4.648;2022-11-18T05:45:35;1.48;;;0.60;;
9559;SDS011;4818;50.860;4.648;2022-11-18T05:48:01;2.72;;;0.77;;
9559;SDS011;4818;50.860;4.648;2022-11-18T05:50:32;2.05;;;0.60;;
9559;SDS011;4818;50.860;4.648;2022-11-18T05:52:58;6.53;;;0.90;;
9559;SDS011;4818;50.860;4.648;2022-11-18T05:55:28;3.03;;;0.73;;
9559;SDS011;4818;50.860;4.648;2022-11-18T05:57:54;5.30;;;0.82;;
9559;SDS011;4818;50.860;4.648;2022-11-18T06:00:20;3.55;;;0.75;;
9559;SDS011;4818;50.860;4.648;2022-11-18T06:02:47;1.35;;;0.60;;
9559;SDS011;4818;50.860;4.648;2022-11-18T06:05:15;3.70;;;0.50;;
9559;SDS011;4818;50.860;4.648;2022-11-18T06:07:43;3.70;;;0.80;;
9559;SDS011;4818;50.860;4.648;2022-11-18T06:10:20;7.00;;;0.80;;
9559;SDS011;4818;50.860;4.648;2022-11-18T06:12:48;5.63;;;1.20;;
9559;SDS011;4818;50.860;4.648;2022-11-18T06:15:15;3.72;;;0.60;;
9559;SDS011;4818;50.860;4.648;2022-11-18T06:17:46;8.80;;;1.13;;
9559;SDS011;4818;50.860;4.648;2022-11-18T06:20:13;6.93;;;0.80;;
9559;SDS011;4818;50.860;4.648;2022-11-18T06:22:39;3.65;;;0.90;;
9559;SDS011;4818;50.860;4.648;2022-11-18T06:27:40;2.83;;;0.60;;
9559;SDS011;4818;50.860;4.648;2022-11-18T06:30:07;3.47;;;0.80;;
9559;SDS011;4818;50.860;4.648;2022-11-18T06:32:33;2.05;;;0.60;;
9559;SDS011;4818;50.860;4.648;2022-11-18T06:35:00;10.40;;;1.20;;
9559;SDS011;4818;50.860;4.648;2022-11-18T06:37:26;1.80;;;0.60;;
9559;SDS011;4818;50.860;4.648;2022-11-18T06:39:52;4.68;;;1.48;;
9559;SDS011;4818;50.860;4.648;2022-11-18T06:42:18;3.50;;;0.60;;
9559;SDS011;4818;50.860;4.648;2022-11-18T06:45:13;4.20;;;0.63;;
9559;SDS011;4818;50.860;4.648;2022-11-18T06:47:39;3.22;;;0.70;;
9559;SDS011;4818;50.860;4.648;2022-11-18T06:50:06;5.85;;;0.82;;
9559;SDS011;4818;50.860;4.648;2022-11-18T06:52:33;4.38;;;0.93;;
9559;SDS011;4818;50.860;4.648;2022-11-18T06:55:00;4.45;;;1.20;;
9559;SDS011;4818;50.860;4.648;2022-11-18T06:57:26;6.95;;;1.25;;
9559;SDS011;4818;50.860;4.648;2022-11-18T06:59:52;3.72;;;0.80;;
9559;SDS011;4818;50.860;4.648;2022-11-18T07:02:19;5.88;;;0.85;;
9559;SDS011;4818;50.860;4.648;2022-11-18T07:04:45;5.22;;;1.27;;
9559;SDS011;4818;50.860;4.648;2022-11-18T07:07:12;6.15;;;1.10;;
9559;SDS011;4818;50.860;4.648;2022-11-18T07:09:38;6.40;;;0.80;;
9559;SDS011;4818;50.860;4.648;2022-11-18T07:12:04;5.57;;;1.35;;
9559;SDS011;4818;50.860;4.648;2022-11-18T07:14:31;5.72;;;0.90;;
9559;SDS011;4818;50.860;4.648;2022-11-18T07:16:57;3.10;;;1.05;;
9559;SDS011;4818;50.860;4.648;2022-11-18T07:19:23;5.68;;;1.15;;
9559;SDS011;4818;50.860;4.648;2022-11-18T07:21:49;7.28;;;2.05;;
9559;SDS011;4818;50.860;4.648;2022-11-18T07:24:16;3.60;;;1.02;;
9559;SDS011;4818;50.860;4.648;2022-11-18T07:26:42;6.97;;;1.50;;
9559;SDS011;4818;50.860;4.648;2022-11-18T07:29:08;4.75;;;1.48;;
9559;SDS011;4818;50.860;4.648;2022-11-18T07:31:35;3.75;;;1.27;;
9559;SDS011;4818;50.860;4.648;2022-11-18T07:34:03;4.75;;;1.63;;
9559;SDS011;4818;50.860;4.648;2022-11-18T07:36:29;7.28;;;1.38;;
9559;SDS011;4818;50.860;4.648;2022-11-18T07:38:57;5.45;;;1.67;;
9559;SDS011;4818;50.860;4.648;2022-11-18T07:41:24;9.40;;;1.90;;
9559;SDS011;4818;50.860;4.648;2022-11-18T07:43:52;11.10;;;1.48;;
9559;SDS011;4818;50.860;4.648;2022-11-18T07:46:22;6.88;;;1.45;;
9559;SDS011;4818;50.860;4.648;2022-11-18T07:51:15;6.72;;;1.23;;
9559;SDS011;4818;50.860;4.648;2022-11-18T07:53:42;6.03;;;1.00;;
9559;SDS011;4818;50.860;4.648;2022-11-18T07:56:09;5.45;;;1.00;;
9559;SDS011;4818;50.860;4.648;2022-11-18T07:58:35;6.50;;;0.63;;
9559;SDS011;4818;50.860;4.648;2022-11-18T08:01:06;4.65;;;0.80;;
9559;SDS011;4818;50.860;4.648;2022-11-18T08:03:33;11.30;;;0.70;;
9559;SDS011;4818;50.860;4.648;2022-11-18T08:06:00;3.88;;;0.77;;
9559;SDS011;4818;50.860;4.648;2022-11-18T08:08:27;3.08;;;0.70;;
9559;SDS011;4818;50.860;4.648;2022-11-18T08:10:57;4.30;;;0.70;;
9559;SDS011;4818;50.860;4.648;2022-11-18T08:13:23;3.38;;;0.70;;
9559;SDS011;4818;50.860;4.648;2022-11-18T08:15:50;8.20;;;0.90;;
9559;SDS011;4818;50.860;4.648;2022-11-18T08:18:16;11.35;;;0.80;;
9559;SDS011;4818;50.860;4.648;2022-11-18T08:20:43;6.53;;;0.60;;
9559;SDS011;4818;50.860;4.648;2022-11-18T08:23:09;4.03;;;0.65;;
9559;SDS011;4818;50.860;4.648;2022-11-18T08:25:36;4.18;;;0.68;;
9559;SDS011;4818;50.860;4.648;2022-11-18T08:28:02;2.67;;;0.93;;
9559;SDS011;4818;50.860;4.648;2022-11-18T08:30:28;9.75;;;1.02;;
9559;SDS011;4818;50.860;4.648;2022-11-18T08:32:55;3.97;;;1.23;;
9559;SDS011;4818;50.860;4.648;2022-11-18T08:35:21;11.00;;;1.80;;
9559;SDS011;4818;50.860;4.648;2022-11-18T08:37:47;14.85;;;1.20;;
9559;SDS011;4818;50.860;4.648;2022-11-18T08:40:14;6.22;;;1.20;;
9559;SDS011;4818;50.860;4.648;2022-11-18T08:42:40;5.95;;;1.00;;
9559;SDS011;4818;50.860;4.648;2022-11-18T08:45:06;7.03;;;1.15;;
9559;SDS011;4818;50.860;4.648;2022-11-18T08:47:33;6.20;;;1.38;;
9559;SDS011;4818;50.860;4.648;2022-11-18T08:49:59;4.95;;;1.10;;
9559;SDS011;4818;50.860;4.648;2022-11-18T08:52:25;5.63;;;1.60;;
9559;SDS011;4818;50.860;4.648;2022-11-18T08:54:53;3.15;;;1.55;;
9559;SDS011;4818;50.860;4.648;2022-11-18T08:57:20;3.10;;;0.95;;
9559;SDS011;4818;50.860;4.648;2022-11-18T08:59:46;8.43;;;1.13;;
9559;SDS011;4818;50.860;4.648;2022-11-18T09:02:13;8.07;;;1.58;;
9559;SDS011;4818;50.860;4.648;2022-11-18T09:04:39;7.20;;;1.23;;
9559;SDS011;4818;50.860;4.648;2022-11-18T09:07:06;5.80;;;1.05;;
9559;SDS011;4818;50.860;4.648;2022-11-18T09:09:32;5.18;;;0.80;;
9559;SDS011;4818;50.860;4.648;2022-11-18T09:11:58;6.32;;;1.25;;
9559;SDS011;4818;50.860;4.648;2022-11-18T09:14:25;8.43;;;1.15;;
9559;SDS011;4818;50.860;4.648;2022-11-18T09:16:51;9.15;;;1.58;;
9559;SDS011;4818;50.860;4.648;2022-11-18T09:19:17;9.57;;;1.27;;
9559;SDS011;4818;50.860;4.648;2022-11-18T09:21:43;9.25;;;2.10;;
9559;SDS011;4818;50.860;4.648;2022-11-18T09:24:10;4.25;;;0.77;;
9559;SDS011;4818;50.860;4.648;2022-11-18T09:26:36;5.53;;;0.77;;
9559;SDS011;4818;50.860;4.648;2022-11-18T09:29:03;6.30;;;0.80;;
9559;SDS011;4818;50.860;4.648;2022-11-18T09:31:33;6.18;;;0.75;;
9559;SDS011;4818;50.860;4.648;2022-11-18T09:33:59;8.82;;;0.93;;
9559;SDS011;4818;50.860;4.648;2022-11-18T09:36:26;5.20;;;0.90;;
9559;SDS011;4818;50.860;4.648;2022-11-18T09:38:53;5.50;;;0.73;;
9559;SDS011;4818;50.860;4.648;2022-11-18T09:47:26;4.32;;;0.90;;
9559;SDS011;4818;50.860;4.648;2022-11-18T09:49:33;7.85;;;0.65;;
9559;SDS011;4818;50.860;4.648;2022-11-18T09:52:45;4.43;;;0.68;;
9559;SDS011;4818;50.860;4.648;2022-11-18T09:57:20;8.23;;;0.50;;
9559;SDS011;4818;50.860;4.648;2022-11-18T09:59:47;13.32;;;1.38;;
9559;SDS011;4818;50.860;4.648;2022-11-18T10:04:46;8.77;;;1.58;;
9559;SDS011;4818;50.860;4.648;2022-11-18T10:07:17;9.25;;;1.05;;
9559;SDS011;4818;50.860;4.648;2022-11-18T10:09:45;3.70;;;0.50;;
9559;SDS011;4818;50.860;4.648;2022-11-18T10:12:25;10.65;;;0.73;;
9559;SDS011;4818;50.860;4.648;2022-11-18T10:20:19;4.55;;;0.50;;
9559;SDS011;4818;50.860;4.648;2022-11-18T10:25:22;10.55;;;1.27;;
9559;SDS011;4818;50.860;4.648;2022-11-18T10:27:49;3.30;;;0.60;;
9559;SDS011;4818;50.860;4.648;2022-11-18T10:33:02;3.00;;;0.40;;
9559;SDS011;4818;50.860;4.648;2022-11-18T10:35:35;6.30;;;0.50;;
9559;SDS011;4818;50.860;4.648;2022-11-18T10:38:04;1.73;;;0.32;;
9559;SDS011;4818;50.860;4.648;2022-11-18T10:40:31;4.00;;;0.40;;
9559;SDS011;4818;50.860;4.648;2022-11-18T10:42:57;4.57;;;0.50;;
9559;SDS011;4818;50.860;4.648;2022-11-18T10:45:30;4.47;;;0.52;;
9559;SDS011;4818;50.860;4.648;2022-11-18T10:50:36;3.05;;;0.60;;
9559;SDS011;4818;50.860;4.648;2022-11-18T10:53:04;3.35;;;0.40;;
9559;SDS011;4818;50.860;4.648;2022-11-18T10:55:30;9.23;;;1.05;;
9559;SDS011;4818;50.860;4.648;2022-11-18T10:57:59;7.78;;;0.70;;
9559;SDS011;4818;50.860;4.648;2022-11-18T11:02:53;3.58;;;0.55;;
9559;SDS011;4818;50.860;4.648;2022-11-18T11:05:20;3.33;;;0.32;;
9559;SDS011;4818;50.860;4.648;2022-11-18T11:08:00;6.15;;;0.68;;
9559;SDS011;4818;50.860;4.648;2022-11-18T11:10:27;4.85;;;0.93;;
9559;SDS011;4818;50.860;4.648;2022-11-18T11:13:09;6.05;;;0.45;;
9559;SDS011;4818;50.860;4.648;2022-11-18T11:15:41;3.53;;;0.60;;
9559;SDS011;4818;50.860;4.648;2022-11-18T11:21:40;4.07;;;0.60;;
9559;SDS011;4818;50.860;4.648;2022-11-18T11:23:59;5.63;;;0.55;;
9559;SDS011;4818;50.860;4.648;2022-11-18T11:29:37;4.88;;;0.40;;
9559;SDS011;4818;50.860;4.648;2022-11-18T11:40:01;6.35;;;0.40;;
9559;SDS011;4818;50.860;4.648;2022-11-18T11:52:51;3.70;;;0.50;;
9559;SDS011;4818;50.860;4.648;2022-11-18T11:56:22;2.95;;;0.50;;
9559;SDS011;4818;50.860;4.648;2022-11-18T12:03:40;2.47;;;0.38;;
9559;SDS011;4818;50.860;4.648;2022-11-18T12:06:09;4.30;;;0.40;;
9559;SDS011;4818;50.860;4.648;2022-11-18T12:08:36;2.70;;;0.40;;
9559;SDS011;4818;50.860;4.648;2022-11-18T12:11:10;4.55;;;0.77;;
9559;SDS011;4818;50.860;4.648;2022-11-18T12:16:27;1.38;;;0.35;;
9559;SDS011;4818;50.860;4.648;2022-11-18T12:22:07;2.35;;;0.30;;
9559;SDS011;4818;50.860;4.648;2022-11-18T12:24:24;6.30;;;0.47;;
9559;SDS011;4818;50.860;4.648;2022-11-18T12:26:58;3.60;;;0.40;;
9559;SDS011;4818;50.860;4.648;2022-11-18T12:30:16;3.85;;;0.22;;
9559;SDS011;4818;50.860;4.648;2022-11-18T12:45:46;11.20;;;0.68;;
9559;SDS011;4818;50.860;4.648;2022-11-18T12:50:55;2.90;;;0.30;;
9559;SDS011;4818;50.860;4.648;2022-11-18T12:53:41;3.88;;;0.55;;
9559;SDS011;4818;50.860;4.648;2022-11-18T12:56:31;4.60;;;0.40;;
9559;SDS011;4818;50.860;4.648;2022-11-18T12:58:57;4.55;;;0.40;;
9559;SDS011;4818;50.860;4.648;2022-11-18T13:03:50;3.65;;;0.35;;
9559;SDS011;4818;50.860;4.648;2022-11-18T13:08:54;4.55;;;0.40;;
9559;SDS011;4818;50.860;4.648;2022-11-18T13:11:20;8.13;;;0.60;;
9559;SDS011;4818;50.860;4.648;2022-11-18T13:14:11;4.45;;;0.40;;
9559;SDS011;4818;50.860;4.648;2022-11-18T13:16:57;4.15;;;0.60;;
9559;SDS011;4818;50.860;4.648;2022-11-18T13:19:42;4.43;;;0.50;;
9559;SDS011;4818;50.860;4.648;2022-11-18T13:22:15;4.20;;;0.60;;
9559;SDS011;4818;50.860;4.648;2022-11-18T13:25:00;3.35;;;0.95;;
9559;SDS011;4818;50.860;4.648;2022-11-18T13:27:34;3.55;;;0.32;;
9559;SDS011;4818;50.860;4.648;2022-11-18T13:30:05;4.72;;;0.60;;
9559;SDS011;4818;50.860;4.648;2022-11-18T13:32:35;6.20;;;0.73;;
9559;SDS011;4818;50.860;4.648;2022-11-18T13:35:20;2.80;;;0.22;;
9559;SDS011;4818;50.860;4.648;2022-11-18T13:37:58;3.80;;;0.45;;
9559;SDS011;4818;50.860;4.648;2022-11-18T13:40:37;3.65;;;0.57;;
9559;SDS011;4818;50.860;4.648;2022-11-18T13:43:03;3.70;;;0.68;;
9559;SDS011;4818;50.860;4.648;2022-11-18T13:45:30;3.97;;;0.60;;
9559;SDS011;4818;50.860;4.648;2022-11-18T13:48:01;2.05;;;0.40;;
9559;SDS011;4818;50.860;4.648;2022-11-18T13:50:37;2.83;;;0.32;;
9559;SDS011;4818;50.860;4.648;2022-11-18T13:55:50;2.58;;;0.40;;
9559;SDS011;4818;50.860;4.648;2022-11-18T14:00:43;7.03;;;0.82;;
9559;SDS011;4818;50.860;4.648;2022-11-18T14:05:51;2.00;;;0.40;;
9559;SDS011;4818;50.860;4.648;2022-11-18T14:08:21;5.95;;;0.60;;
9559;SDS011;4818;50.860;4.648;2022-11-18T14:10:48;7.40;;;0.63;;
9559;SDS011;4818;50.860;4.648;2022-11-18T14:15:51;3.05;;;0.57;;
9559;SDS011;4818;50.860;4.648;2022-11-18T14:18:33;7.85;;;1.02;;
9559;SDS011;4818;50.860;4.648;2022-11-18T14:21:00;10.13;;;0.82;;
9559;SDS011;4818;50.860;4.648;2022-11-18T14:23:30;5.10;;;0.80;;
9559;SDS011;4818;50.860;4.648;2022-11-18T14:25:58;5.07;;;0.90;;
9559;SDS011;4818;50.860;4.648;2022-11-18T14:28:29;6.45;;;0.95;;
9559;SDS011;4818;50.860;4.648;2022-11-18T14:31:31;6.65;;;1.75;;
9559;SDS011;4818;50.860;4.648;2022-11-18T14:34:10;3.92;;;0.60;;
9559;SDS011;4818;50.860;4.648;2022-11-18T14:36:39;4.90;;;1.15;;
9559;SDS011;4818;50.860;4.648;2022-11-18T14:39:39;7.18;;;1.02;;
9559;SDS011;4818;50.860;4.648;2022-11-18T14:41:58;3.22;;;0.52;;
9559;SDS011;4818;50.860;4.648;2022-11-18T14:44:25;8.40;;;1.00;;
9559;SDS011;4818;50.860;4.648;2022-11-18T14:49:20;4.82;;;0.70;;
9559;SDS011;4818;50.860;4.648;2022-11-18T14:51:47;3.58;;;0.82;;
9559;SDS011;4818;50.860;4.648;2022-11-18T14:54:14;8.05;;;0.98;;
9559;SDS011;4818;50.860;4.648;2022-11-18T14:56:42;6.25;;;0.70;;
9559;SDS011;4818;50.860;4.648;2022-11-18T14:59:12;7.15;;;1.50;;
9559;SDS011;4818;50.860;4.648;2022-11-18T15:01:39;9.13;;;0.82;;
9559;SDS011;4818;50.860;4.648;2022-11-18T15:04:06;4.25;;;0.90;;
9559;SDS011;4818;50.860;4.648;2022-11-18T15:06:32;10.35;;;0.68;;
9559;SDS011;4818;50.860;4.648;2022-11-18T15:08:58;11.48;;;1.42;;
9559;SDS011;4818;50.860;4.648;2022-11-18T15:11:24;5.15;;;0.60;;
9559;SDS011;4818;50.860;4.648;2022-11-18T15:13:50;7.15;;;1.25;;
9559;SDS011;4818;50.860;4.648;2022-11-18T15:16:18;10.65;;;1.15;;
9559;SDS011;4818;50.860;4.648;2022-11-18T15:18:46;4.72;;;1.00;;
9559;SDS011;4818;50.860;4.648;2022-11-18T15:21:12;4.60;;;0.77;;
9559;SDS011;4818;50.860;4.648;2022-11-18T15:23:39;4.22;;;0.50;;
9559;SDS011;4818;50.860;4.648;2022-11-18T15:26:15;5.15;;;1.63;;
9559;SDS011;4818;50.860;4.648;2022-11-18T15:28:43;6.88;;;0.80;;
9559;SDS011;4818;50.860;4.648;2022-11-18T15:31:09;5.10;;;1.00;;
9559;SDS011;4818;50.860;4.648;2022-11-18T15:33:35;3.53;;;0.55;;
9559;SDS011;4818;50.860;4.648;2022-11-18T15:36:01;4.30;;;0.77;;
9559;SDS011;4818;50.860;4.648;2022-11-18T15:38:27;3.92;;;0.80;;
9559;SDS011;4818;50.860;4.648;2022-11-18T15:40:54;9.15;;;0.98;;
9559;SDS011;4818;50.860;4.648;2022-11-18T15:43:20;12.00;;;1.08;;
9559;SDS011;4818;50.860;4.648;2022-11-18T15:45:46;4.65;;;0.57;;
9559;SDS011;4818;50.860;4.648;2022-11-18T15:48:12;6.65;;;0.70;;
9559;SDS011;4818;50.860;4.648;2022-11-18T15:50:38;4.95;;;0.80;;
9559;SDS011;4818;50.860;4.648;2022-11-18T15:53:04;4.35;;;0.70;;
9559;SDS011;4818;50.860;4.648;2022-11-18T15:55:30;6.72;;;1.33;;
9559;SDS011;4818;50.860;4.648;2022-11-18T15:57:56;7.68;;;1.00;;
9559;SDS011;4818;50.860;4.648;2022-11-18T16:00:22;5.57;;;1.38;;
9559;SDS011;4818;50.860;4.648;2022-11-18T16:02:48;8.05;;;2.22;;
9559;SDS011;4818;50.860;4.648;2022-11-18T16:05:14;8.57;;;1.55;;
9559;SDS011;4818;50.860;4.648;2022-11-18T16:07:41;6.82;;;1.48;;
9559;SDS011;4818;50.860;4.648;2022-11-18T16:10:07;13.10;;;2.72;;
9559;SDS011;4818;50.860;4.648;2022-11-18T16:12:52;9.70;;;3.85;;
9559;SDS011;4818;50.860;4.648;2022-11-18T16:15:18;12.73;;;5.57;;
9559;SDS011;4818;50.860;4.648;2022-11-18T16:18:03;13.95;;;3.83;;
9559;SDS011;4818;50.860;4.648;2022-11-18T16:20:29;10.85;;;3.40;;
9559;SDS011;4818;50.860;4.648;2022-11-18T16:22:56;14.50;;;3.10;;
9559;SDS011;4818;50.860;4.648;2022-11-18T16:25:22;12.70;;;3.08;;
9559;SDS011;4818;50.860;4.648;2022-11-18T16:27:48;8.48;;;2.80;;
9559;SDS011;4818;50.860;4.648;2022-11-18T16:30:14;9.98;;;2.83;;
9559;SDS011;4818;50.860;4.648;2022-11-18T16:32:59;7.20;;;2.78;;
9559;SDS011;4818;50.860;4.648;2022-11-18T16:35:25;4.80;;;2.55;;
9559;SDS011;4818;50.860;4.648;2022-11-18T16:37:52;10.73;;;2.88;;
9559;SDS011;4818;50.860;4.648;2022-11-18T16:40:18;13.10;;;2.83;;
9559;SDS011;4818;50.860;4.648;2022-11-18T16:42:48;8.75;;;3.35;;
9559;SDS011;4818;50.860;4.648;2022-11-18T16:47:40;7.72;;;1.90;;
9559;SDS011;4818;50.860;4.648;2022-11-18T16:50:07;13.63;;;2.10;;
9559;SDS011;4818;50.860;4.648;2022-11-18T16:52:33;8.02;;;1.90;;
9559;SDS011;4818;50.860;4.648;2022-11-18T16:55:00;5.43;;;1.67;;
9559;SDS011;4818;50.860;4.648;2022-11-18T16:57:26;8.13;;;1.30;;
9559;SDS011;4818;50.860;4.648;2022-11-18T16:59:52;8.35;;;1.85;;
9559;SDS011;4818;50.860;4.648;2022-11-18T17:02:18;6.95;;;1.67;;
9559;SDS011;4818;50.860;4.648;2022-11-18T17:04:44;7.88;;;1.83;;
9559;SDS011;4818;50.860;4.648;2022-11-18T17:07:11;6.22;;;1.67;;
9559;SDS011;4818;50.860;4.648;2022-11-18T17:09:38;6.70;;;1.80;;
9559;SDS011;4818;50.860;4.648;2022-11-18T17:12:04;6.93;;;2.63;;
9559;SDS011;4818;50.860;4.648;2022-11-18T17:14:30;6.93;;;2.42;;
9559;SDS011;4818;50.860;4.648;2022-11-18T17:16:56;6.57;;;2.72;;
9559;SDS011;4818;50.860;4.648;2022-11-18T17:19:22;8.65;;;3.17;;
9559;SDS011;4818;50.860;4.648;2022-11-18T17:21:49;7.38;;;2.50;;
9559;SDS011;4818;50.860;4.648;2022-11-18T17:24:17;5.22;;;2.50;;
9559;SDS011;4818;50.860;4.648;2022-11-18T17:26:44;12.70;;;3.17;;
9559;SDS011;4818;50.860;4.648;2022-11-18T17:29:11;6.85;;;2.10;;
9559;SDS011;4818;50.860;4.648;2022-11-18T17:31:37;3.90;;;2.50;;
9559;SDS011;4818;50.860;4.648;2022-11-18T17:34:04;9.98;;;3.40;;
9559;SDS011;4818;50.860;4.648;2022-11-18T17:36:30;13.73;;;4.82;;
9559;SDS011;4818;50.860;4.648;2022-11-18T17:38:57;7.47;;;4.35;;
9559;SDS011;4818;50.860;4.648;2022-11-18T17:41:24;6.53;;;2.55;;